sensor_id;sensor_type;location;lat;lon;timestamp;P1;durP1;ratioP1;P2;durP2;ratioP2
10387;SDS011;5240;51.128;4.566;2022-10-22T00:00:05;7.78;;;2.85;;
10387;SDS011;5240;51.128;4.566;2022-10-22T00:02:33;8.27;;;3.50;;
10387;SDS011;5240;51.128;4.566;2022-10-22T00:05:00;11.15;;;3.50;;
10387;SDS011;5240;51.128;4.566;2022-10-22T00:07:27;11.02;;;3.60;;
10387;SDS011;5240;51.128;4.566;2022-10-22T00:09:56;12.38;;;3.80;;
10387;SDS011;5240;51.128;4.566;2022-10-22T00:12:23;9.25;;;3.53;;
10387;SDS011;5240;51.128;4.566;2022-10-22T00:14:50;9.20;;;3.17;;
10387;SDS011;5240;51.128;4.566;2022-10-22T00:17:17;13.88;;;4.15;;
10387;SDS011;5240;51.128;4.566;2022-10-22T00:19:44;9.68;;;3.25;;
10387;SDS011;5240;51.128;4.566;2022-10-22T00:22:11;14.23;;;4.03;;
10387;SDS011;5240;51.128;4.566;2022-10-22T00:24:38;9.52;;;3.38;;
10387;SDS011;5240;51.128;4.566;2022-10-22T00:27:07;11.40;;;3.72;;
10387;SDS011;5240;51.128;4.566;2022-10-22T00:29:35;7.40;;;3.60;;
10387;SDS011;5240;51.128;4.566;2022-10-22T00:32:03;8.07;;;3.28;;
10387;SDS011;5240;51.128;4.566;2022-10-22T00:34:30;12.00;;;3.38;;
10387;SDS011;5240;51.128;4.566;2022-10-22T00:36:58;10.98;;;3.30;;
10387;SDS011;5240;51.128;4.566;2022-10-22T00:39:26;11.52;;;3.95;;
10387;SDS011;5240;51.128;4.566;2022-10-22T00:41:54;9.95;;;3.90;;
10387;SDS011;5240;51.128;4.566;2022-10-22T00:47:30;8.77;;;3.28;;
10387;SDS011;5240;51.128;4.566;2022-10-22T00:49:59;9.52;;;3.38;;
10387;SDS011;5240;51.128;4.566;2022-10-22T00:52:28;8.80;;;2.95;;
10387;SDS011;5240;51.128;4.566;2022-10-22T00:54:56;9.02;;;3.45;;
10387;SDS011;5240;51.128;4.566;2022-10-22T00:57:23;7.07;;;2.80;;
10387;SDS011;5240;51.128;4.566;2022-10-22T00:59:50;8.85;;;3.33;;
10387;SDS011;5240;51.128;4.566;2022-10-22T01:02:18;12.93;;;3.50;;
10387;SDS011;5240;51.128;4.566;2022-10-22T01:04:45;7.07;;;3.13;;
10387;SDS011;5240;51.128;4.566;2022-10-22T01:07:14;8.70;;;3.10;;
10387;SDS011;5240;51.128;4.566;2022-10-22T01:09:45;8.80;;;3.20;;
10387;SDS011;5240;51.128;4.566;2022-10-22T01:12:18;11.02;;;3.65;;
10387;SDS011;5240;51.128;4.566;2022-10-22T01:14:55;12.50;;;3.25;;
10387;SDS011;5240;51.128;4.566;2022-10-22T01:17:33;8.10;;;3.67;;
10387;SDS011;5240;51.128;4.566;2022-10-22T01:20:08;7.47;;;3.05;;
10387;SDS011;5240;51.128;4.566;2022-10-22T01:22:45;10.02;;;3.35;;
10387;SDS011;5240;51.128;4.566;2022-10-22T01:25:27;9.38;;;3.40;;
10387;SDS011;5240;51.128;4.566;2022-10-22T01:28:00;13.77;;;3.90;;
10387;SDS011;5240;51.128;4.566;2022-10-22T01:30:40;11.57;;;3.83;;
10387;SDS011;5240;51.128;4.566;2022-10-22T01:33:09;10.70;;;3.40;;
10387;SDS011;5240;51.128;4.566;2022-10-22T01:35:41;9.02;;;3.33;;
10387;SDS011;5240;51.128;4.566;2022-10-22T01:38:11;12.77;;;4.10;;
10387;SDS011;5240;51.128;4.566;2022-10-22T01:40:41;11.43;;;3.55;;
10387;SDS011;5240;51.128;4.566;2022-10-22T01:43:09;10.82;;;3.03;;
10387;SDS011;5240;51.128;4.566;2022-10-22T01:45:38;11.73;;;3.20;;
10387;SDS011;5240;51.128;4.566;2022-10-22T01:48:12;7.70;;;3.13;;
10387;SDS011;5240;51.128;4.566;2022-10-22T01:51:03;11.15;;;3.67;;
10387;SDS011;5240;51.128;4.566;2022-10-22T01:53:40;13.20;;;3.53;;
10387;SDS011;5240;51.128;4.566;2022-10-22T01:56:16;9.80;;;3.25;;
10387;SDS011;5240;51.128;4.566;2022-10-22T01:58:59;8.23;;;3.53;;
10387;SDS011;5240;51.128;4.566;2022-10-22T02:01:37;12.27;;;3.38;;
10387;SDS011;5240;51.128;4.566;2022-10-22T02:04:12;10.98;;;3.47;;
10387;SDS011;5240;51.128;4.566;2022-10-22T02:06:44;10.05;;;3.50;;
10387;SDS011;5240;51.128;4.566;2022-10-22T02:09:13;9.90;;;3.50;;
10387;SDS011;5240;51.128;4.566;2022-10-22T02:11:42;8.65;;;3.33;;
10387;SDS011;5240;51.128;4.566;2022-10-22T02:14:10;10.18;;;3.33;;
10387;SDS011;5240;51.128;4.566;2022-10-22T02:16:41;9.90;;;3.50;;
10387;SDS011;5240;51.128;4.566;2022-10-22T02:19:11;10.27;;;3.85;;
10387;SDS011;5240;51.128;4.566;2022-10-22T02:21:42;10.50;;;3.42;;
10387;SDS011;5240;51.128;4.566;2022-10-22T02:24:10;7.55;;;3.40;;
10387;SDS011;5240;51.128;4.566;2022-10-22T02:26:38;8.23;;;3.40;;
10387;SDS011;5240;51.128;4.566;2022-10-22T02:29:09;9.05;;;3.35;;
10387;SDS011;5240;51.128;4.566;2022-10-22T02:31:42;10.93;;;3.65;;
10387;SDS011;5240;51.128;4.566;2022-10-22T02:34:13;7.32;;;3.53;;
10387;SDS011;5240;51.128;4.566;2022-10-22T02:36:44;7.70;;;3.45;;
10387;SDS011;5240;51.128;4.566;2022-10-22T02:39:12;9.00;;;3.42;;
10387;SDS011;5240;51.128;4.566;2022-10-22T02:41:41;11.00;;;3.30;;
10387;SDS011;5240;51.128;4.566;2022-10-22T02:44:09;9.35;;;3.35;;
10387;SDS011;5240;51.128;4.566;2022-10-22T02:46:37;11.45;;;3.95;;
10387;SDS011;5240;51.128;4.566;2022-10-22T02:49:06;7.80;;;3.40;;
10387;SDS011;5240;51.128;4.566;2022-10-22T02:51:33;8.00;;;3.63;;
10387;SDS011;5240;51.128;4.566;2022-10-22T02:54:00;10.50;;;3.53;;
10387;SDS011;5240;51.128;4.566;2022-10-22T02:56:27;10.90;;;3.53;;
10387;SDS011;5240;51.128;4.566;2022-10-22T02:58:54;14.20;;;3.55;;
10387;SDS011;5240;51.128;4.566;2022-10-22T03:01:21;8.80;;;3.45;;
10387;SDS011;5240;51.128;4.566;2022-10-22T03:03:47;10.75;;;3.50;;
10387;SDS011;5240;51.128;4.566;2022-10-22T03:06:16;8.27;;;3.45;;
10387;SDS011;5240;51.128;4.566;2022-10-22T03:08:43;13.52;;;3.78;;
10387;SDS011;5240;51.128;4.566;2022-10-22T03:11:10;9.93;;;3.72;;
10387;SDS011;5240;51.128;4.566;2022-10-22T03:13:37;9.43;;;3.75;;
10387;SDS011;5240;51.128;4.566;2022-10-22T03:16:04;13.20;;;3.88;;
10387;SDS011;5240;51.128;4.566;2022-10-22T03:18:31;10.73;;;3.40;;
10387;SDS011;5240;51.128;4.566;2022-10-22T03:21:00;11.13;;;3.40;;
10387;SDS011;5240;51.128;4.566;2022-10-22T03:23:34;8.07;;;3.25;;
10387;SDS011;5240;51.128;4.566;2022-10-22T03:26:02;8.55;;;3.28;;
10387;SDS011;5240;51.128;4.566;2022-10-22T03:28:31;11.55;;;3.30;;
10387;SDS011;5240;51.128;4.566;2022-10-22T03:30:59;8.80;;;3.38;;
10387;SDS011;5240;51.128;4.566;2022-10-22T03:33:26;9.75;;;3.20;;
10387;SDS011;5240;51.128;4.566;2022-10-22T03:35:53;8.60;;;3.30;;
10387;SDS011;5240;51.128;4.566;2022-10-22T03:38:19;9.63;;;3.58;;
10387;SDS011;5240;51.128;4.566;2022-10-22T03:40:48;8.63;;;3.50;;
10387;SDS011;5240;51.128;4.566;2022-10-22T03:43:15;11.40;;;3.47;;
10387;SDS011;5240;51.128;4.566;2022-10-22T03:45:42;9.15;;;3.60;;
10387;SDS011;5240;51.128;4.566;2022-10-22T03:48:09;8.90;;;3.33;;
10387;SDS011;5240;51.128;4.566;2022-10-22T03:50:36;10.70;;;3.45;;
10387;SDS011;5240;51.128;4.566;2022-10-22T03:53:03;9.68;;;2.97;;
10387;SDS011;5240;51.128;4.566;2022-10-22T03:55:31;7.57;;;3.00;;
10387;SDS011;5240;51.128;4.566;2022-10-22T03:57:59;8.05;;;3.08;;
10387;SDS011;5240;51.128;4.566;2022-10-22T04:00:26;8.57;;;2.55;;
10387;SDS011;5240;51.128;4.566;2022-10-22T04:02:53;7.45;;;2.85;;
10387;SDS011;5240;51.128;4.566;2022-10-22T04:05:21;8.23;;;2.80;;
10387;SDS011;5240;51.128;4.566;2022-10-22T04:07:49;5.78;;;3.25;;
10387;SDS011;5240;51.128;4.566;2022-10-22T04:10:16;8.55;;;3.65;;
10387;SDS011;5240;51.128;4.566;2022-10-22T04:12:45;9.85;;;3.10;;
10387;SDS011;5240;51.128;4.566;2022-10-22T04:15:14;14.10;;;2.80;;
10387;SDS011;5240;51.128;4.566;2022-10-22T04:17:41;10.82;;;2.72;;
10387;SDS011;5240;51.128;4.566;2022-10-22T04:20:08;10.75;;;2.95;;
10387;SDS011;5240;51.128;4.566;2022-10-22T04:22:36;9.15;;;2.92;;
10387;SDS011;5240;51.128;4.566;2022-10-22T04:25:03;11.65;;;2.90;;
10387;SDS011;5240;51.128;4.566;2022-10-22T04:27:31;9.85;;;2.78;;
10387;SDS011;5240;51.128;4.566;2022-10-22T04:29:58;9.73;;;2.63;;
10387;SDS011;5240;51.128;4.566;2022-10-22T04:32:27;11.98;;;2.92;;
10387;SDS011;5240;51.128;4.566;2022-10-22T04:34:54;8.93;;;2.85;;
10387;SDS011;5240;51.128;4.566;2022-10-22T04:37:21;9.45;;;3.00;;
10387;SDS011;5240;51.128;4.566;2022-10-22T04:39:48;6.68;;;2.35;;
10387;SDS011;5240;51.128;4.566;2022-10-22T04:42:15;11.95;;;3.10;;
10387;SDS011;5240;51.128;4.566;2022-10-22T04:44:42;10.13;;;2.50;;
10387;SDS011;5240;51.128;4.566;2022-10-22T04:47:09;7.53;;;2.72;;
10387;SDS011;5240;51.128;4.566;2022-10-22T04:49:37;8.38;;;2.60;;
10387;SDS011;5240;51.128;4.566;2022-10-22T04:52:05;11.13;;;2.97;;
10387;SDS011;5240;51.128;4.566;2022-10-22T04:54:32;10.68;;;2.80;;
10387;SDS011;5240;51.128;4.566;2022-10-22T04:56:59;10.55;;;2.67;;
10387;SDS011;5240;51.128;4.566;2022-10-22T04:59:26;10.27;;;2.85;;
10387;SDS011;5240;51.128;4.566;2022-10-22T05:01:53;10.02;;;2.80;;
10387;SDS011;5240;51.128;4.566;2022-10-22T05:04:20;9.02;;;2.75;;
10387;SDS011;5240;51.128;4.566;2022-10-22T05:06:48;9.10;;;3.03;;
10387;SDS011;5240;51.128;4.566;2022-10-22T05:09:16;11.05;;;2.50;;
10387;SDS011;5240;51.128;4.566;2022-10-22T05:11:45;6.18;;;2.17;;
10387;SDS011;5240;51.128;4.566;2022-10-22T05:14:15;9.40;;;2.47;;
10387;SDS011;5240;51.128;4.566;2022-10-22T05:16:43;10.35;;;2.75;;
10387;SDS011;5240;51.128;4.566;2022-10-22T05:19:14;7.00;;;2.33;;
10387;SDS011;5240;51.128;4.566;2022-10-22T05:21:42;8.63;;;2.45;;
10387;SDS011;5240;51.128;4.566;2022-10-22T05:24:11;10.07;;;2.47;;
10387;SDS011;5240;51.128;4.566;2022-10-22T05:26:38;12.18;;;2.83;;
10387;SDS011;5240;51.128;4.566;2022-10-22T05:29:05;11.18;;;2.72;;
10387;SDS011;5240;51.128;4.566;2022-10-22T05:31:32;9.18;;;2.65;;
10387;SDS011;5240;51.128;4.566;2022-10-22T05:33:59;9.20;;;2.40;;
10387;SDS011;5240;51.128;4.566;2022-10-22T05:36:26;9.43;;;2.78;;
10387;SDS011;5240;51.128;4.566;2022-10-22T05:38:53;6.28;;;2.70;;
10387;SDS011;5240;51.128;4.566;2022-10-22T05:41:22;7.72;;;2.35;;
10387;SDS011;5240;51.128;4.566;2022-10-22T05:43:50;10.32;;;2.55;;
10387;SDS011;5240;51.128;4.566;2022-10-22T05:46:20;7.82;;;2.95;;
10387;SDS011;5240;51.128;4.566;2022-10-22T05:48:48;11.93;;;3.05;;
10387;SDS011;5240;51.128;4.566;2022-10-22T05:51:16;11.07;;;2.45;;
10387;SDS011;5240;51.128;4.566;2022-10-22T05:53:43;8.13;;;2.42;;
10387;SDS011;5240;51.128;4.566;2022-10-22T05:56:11;9.40;;;2.80;;
10387;SDS011;5240;51.128;4.566;2022-10-22T05:58:41;7.13;;;2.70;;
10387;SDS011;5240;51.128;4.566;2022-10-22T06:01:10;8.05;;;2.67;;
10387;SDS011;5240;51.128;4.566;2022-10-22T06:03:38;8.85;;;3.10;;
10387;SDS011;5240;51.128;4.566;2022-10-22T06:06:08;6.43;;;2.35;;
10387;SDS011;5240;51.128;4.566;2022-10-22T06:08:42;8.82;;;2.40;;
10387;SDS011;5240;51.128;4.566;2022-10-22T06:11:10;9.85;;;2.53;;
10387;SDS011;5240;51.128;4.566;2022-10-22T06:13:37;9.98;;;2.25;;
10387;SDS011;5240;51.128;4.566;2022-10-22T06:16:05;6.45;;;2.35;;
10387;SDS011;5240;51.128;4.566;2022-10-22T06:18:32;7.60;;;2.53;;
10387;SDS011;5240;51.128;4.566;2022-10-22T06:21:02;10.52;;;3.00;;
10387;SDS011;5240;51.128;4.566;2022-10-22T06:23:31;7.53;;;2.45;;
10387;SDS011;5240;51.128;4.566;2022-10-22T06:25:58;9.88;;;2.50;;
10387;SDS011;5240;51.128;4.566;2022-10-22T06:28:26;10.48;;;2.63;;
10387;SDS011;5240;51.128;4.566;2022-10-22T06:30:53;6.55;;;2.22;;
10387;SDS011;5240;51.128;4.566;2022-10-22T06:33:23;7.78;;;2.40;;
10387;SDS011;5240;51.128;4.566;2022-10-22T06:35:50;6.45;;;2.33;;
10387;SDS011;5240;51.128;4.566;2022-10-22T06:38:17;10.20;;;2.47;;
10387;SDS011;5240;51.128;4.566;2022-10-22T06:40:44;6.63;;;2.50;;
10387;SDS011;5240;51.128;4.566;2022-10-22T06:43:12;9.90;;;2.63;;
10387;SDS011;5240;51.128;4.566;2022-10-22T06:45:39;9.70;;;2.30;;
10387;SDS011;5240;51.128;4.566;2022-10-22T06:48:06;9.65;;;2.42;;
10387;SDS011;5240;51.128;4.566;2022-10-22T06:50:35;9.45;;;2.50;;
10387;SDS011;5240;51.128;4.566;2022-10-22T06:53:02;7.90;;;2.58;;
10387;SDS011;5240;51.128;4.566;2022-10-22T06:55:29;6.10;;;2.50;;
10387;SDS011;5240;51.128;4.566;2022-10-22T06:57:58;8.07;;;2.05;;
10387;SDS011;5240;51.128;4.566;2022-10-22T07:00:25;9.18;;;2.40;;
10387;SDS011;5240;51.128;4.566;2022-10-22T07:02:52;10.23;;;2.50;;
10387;SDS011;5240;51.128;4.566;2022-10-22T07:05:19;6.40;;;2.05;;
10387;SDS011;5240;51.128;4.566;2022-10-22T07:07:48;8.85;;;2.40;;
10387;SDS011;5240;51.128;4.566;2022-10-22T07:10:15;9.00;;;2.30;;
10387;SDS011;5240;51.128;4.566;2022-10-22T07:12:42;8.48;;;2.00;;
10387;SDS011;5240;51.128;4.566;2022-10-22T07:15:09;7.43;;;2.45;;
10387;SDS011;5240;51.128;4.566;2022-10-22T07:17:36;9.95;;;2.50;;
10387;SDS011;5240;51.128;4.566;2022-10-22T07:20:03;7.32;;;2.55;;
10387;SDS011;5240;51.128;4.566;2022-10-22T07:22:31;9.45;;;2.50;;
10387;SDS011;5240;51.128;4.566;2022-10-22T07:25:00;10.82;;;2.58;;
10387;SDS011;5240;51.128;4.566;2022-10-22T07:27:26;9.68;;;2.67;;
10387;SDS011;5240;51.128;4.566;2022-10-22T07:29:53;10.20;;;2.53;;
10387;SDS011;5240;51.128;4.566;2022-10-22T07:32:20;9.02;;;2.67;;
10387;SDS011;5240;51.128;4.566;2022-10-22T07:34:47;10.25;;;2.78;;
10387;SDS011;5240;51.128;4.566;2022-10-22T07:37:14;7.60;;;2.30;;
10387;SDS011;5240;51.128;4.566;2022-10-22T07:39:41;12.27;;;2.53;;
10387;SDS011;5240;51.128;4.566;2022-10-22T07:42:12;9.98;;;2.63;;
10387;SDS011;5240;51.128;4.566;2022-10-22T07:44:39;10.25;;;2.65;;
10387;SDS011;5240;51.128;4.566;2022-10-22T07:47:05;11.25;;;2.35;;
10387;SDS011;5240;51.128;4.566;2022-10-22T07:49:32;8.63;;;2.70;;
10387;SDS011;5240;51.128;4.566;2022-10-22T07:51:59;6.22;;;2.42;;
10387;SDS011;5240;51.128;4.566;2022-10-22T07:54:26;10.65;;;2.78;;
10387;SDS011;5240;51.128;4.566;2022-10-22T07:56:53;7.47;;;2.50;;
10387;SDS011;5240;51.128;4.566;2022-10-22T07:59:22;10.30;;;2.55;;
10387;SDS011;5240;51.128;4.566;2022-10-22T08:01:48;7.05;;;2.50;;
10387;SDS011;5240;51.128;4.566;2022-10-22T08:04:15;7.95;;;2.17;;
10387;SDS011;5240;51.128;4.566;2022-10-22T08:06:42;10.35;;;2.60;;
10387;SDS011;5240;51.128;4.566;2022-10-22T08:09:09;10.02;;;2.80;;
10387;SDS011;5240;51.128;4.566;2022-10-22T08:11:36;5.90;;;2.17;;
10387;SDS011;5240;51.128;4.566;2022-10-22T08:14:03;7.60;;;2.22;;
10387;SDS011;5240;51.128;4.566;2022-10-22T08:16:32;8.70;;;2.22;;
10387;SDS011;5240;51.128;4.566;2022-10-22T08:18:58;7.50;;;2.15;;
10387;SDS011;5240;51.128;4.566;2022-10-22T08:21:25;10.85;;;2.55;;
10387;SDS011;5240;51.128;4.566;2022-10-22T08:23:52;9.77;;;2.45;;
10387;SDS011;5240;51.128;4.566;2022-10-22T08:26:19;11.48;;;2.70;;
10387;SDS011;5240;51.128;4.566;2022-10-22T08:28:46;8.02;;;2.17;;
10387;SDS011;5240;51.128;4.566;2022-10-22T08:31:13;8.20;;;2.60;;
10387;SDS011;5240;51.128;4.566;2022-10-22T08:33:41;7.57;;;2.17;;
10387;SDS011;5240;51.128;4.566;2022-10-22T08:36:09;9.48;;;2.25;;
10387;SDS011;5240;51.128;4.566;2022-10-22T08:38:36;8.40;;;2.80;;
10387;SDS011;5240;51.128;4.566;2022-10-22T08:41:06;7.88;;;2.60;;
10387;SDS011;5240;51.128;4.566;2022-10-22T08:43:40;12.70;;;2.80;;
10387;SDS011;5240;51.128;4.566;2022-10-22T08:46:23;11.32;;;2.65;;
10387;SDS011;5240;51.128;4.566;2022-10-22T08:49:00;7.15;;;2.33;;
10387;SDS011;5240;51.128;4.566;2022-10-22T08:51:31;7.38;;;2.60;;
10387;SDS011;5240;51.128;4.566;2022-10-22T08:54:05;5.82;;;2.38;;
10387;SDS011;5240;51.128;4.566;2022-10-22T08:56:43;5.82;;;2.15;;
10387;SDS011;5240;51.128;4.566;2022-10-22T08:59:13;6.47;;;2.50;;
10387;SDS011;5240;51.128;4.566;2022-10-22T09:01:47;7.97;;;2.40;;
10387;SDS011;5240;51.128;4.566;2022-10-22T09:04:18;5.88;;;2.20;;
10387;SDS011;5240;51.128;4.566;2022-10-22T09:06:50;6.95;;;2.53;;
10387;SDS011;5240;51.128;4.566;2022-10-22T09:09:19;9.73;;;2.30;;
10387;SDS011;5240;51.128;4.566;2022-10-22T09:11:47;9.13;;;2.70;;
10387;SDS011;5240;51.128;4.566;2022-10-22T09:14:16;8.32;;;2.85;;
10387;SDS011;5240;51.128;4.566;2022-10-22T09:19:40;7.20;;;2.67;;
10387;SDS011;5240;51.128;4.566;2022-10-22T09:22:17;11.57;;;2.88;;
10387;SDS011;5240;51.128;4.566;2022-10-22T09:24:52;8.32;;;2.60;;
10387;SDS011;5240;51.128;4.566;2022-10-22T09:27:25;9.82;;;2.65;;
10387;SDS011;5240;51.128;4.566;2022-10-22T09:29:53;9.45;;;2.25;;
10387;SDS011;5240;51.128;4.566;2022-10-22T09:32:20;8.10;;;2.90;;
10387;SDS011;5240;51.128;4.566;2022-10-22T09:34:49;11.00;;;2.97;;
10387;SDS011;5240;51.128;4.566;2022-10-22T09:37:23;9.10;;;2.63;;
10387;SDS011;5240;51.128;4.566;2022-10-22T09:39:53;10.27;;;3.10;;
10387;SDS011;5240;51.128;4.566;2022-10-22T09:42:23;8.85;;;3.17;;
10387;SDS011;5240;51.128;4.566;2022-10-22T09:44:51;9.23;;;3.00;;
10387;SDS011;5240;51.128;4.566;2022-10-22T09:47:31;8.95;;;2.80;;
10387;SDS011;5240;51.128;4.566;2022-10-22T09:50:05;8.50;;;2.60;;
10387;SDS011;5240;51.128;4.566;2022-10-22T09:52:43;7.70;;;2.55;;
10387;SDS011;5240;51.128;4.566;2022-10-22T09:55:12;9.30;;;2.80;;
10387;SDS011;5240;51.128;4.566;2022-10-22T09:57:39;9.25;;;2.65;;
10387;SDS011;5240;51.128;4.566;2022-10-22T10:00:07;14.10;;;3.20;;
10387;SDS011;5240;51.128;4.566;2022-10-22T10:02:38;5.95;;;2.28;;
10387;SDS011;5240;51.128;4.566;2022-10-22T10:05:11;9.00;;;2.85;;
10387;SDS011;5240;51.128;4.566;2022-10-22T10:07:44;11.15;;;2.75;;
10387;SDS011;5240;51.128;4.566;2022-10-22T10:10:15;7.03;;;3.35;;
10387;SDS011;5240;51.128;4.566;2022-10-22T10:12:45;9.68;;;2.80;;
10387;SDS011;5240;51.128;4.566;2022-10-22T10:15:19;9.15;;;2.38;;
10387;SDS011;5240;51.128;4.566;2022-10-22T10:17:53;8.60;;;2.33;;
10387;SDS011;5240;51.128;4.566;2022-10-22T10:20:32;10.13;;;3.08;;
10387;SDS011;5240;51.128;4.566;2022-10-22T10:23:07;7.28;;;2.85;;
10387;SDS011;5240;51.128;4.566;2022-10-22T10:25:46;7.82;;;2.53;;
10387;SDS011;5240;51.128;4.566;2022-10-22T10:28:20;9.68;;;2.60;;
10387;SDS011;5240;51.128;4.566;2022-10-22T10:30:58;8.63;;;2.75;;
10387;SDS011;5240;51.128;4.566;2022-10-22T10:33:32;7.63;;;2.15;;
10387;SDS011;5240;51.128;4.566;2022-10-22T10:36:11;8.75;;;2.78;;
10387;SDS011;5240;51.128;4.566;2022-10-22T10:38:47;7.85;;;2.25;;
10387;SDS011;5240;51.128;4.566;2022-10-22T10:41:24;6.70;;;2.60;;
10387;SDS011;5240;51.128;4.566;2022-10-22T10:44:01;8.00;;;2.92;;
10387;SDS011;5240;51.128;4.566;2022-10-22T10:46:40;6.38;;;2.45;;
10387;SDS011;5240;51.128;4.566;2022-10-22T10:49:15;7.65;;;2.40;;
10387;SDS011;5240;51.128;4.566;2022-10-22T10:51:48;7.22;;;2.40;;
10387;SDS011;5240;51.128;4.566;2022-10-22T10:54:28;9.23;;;2.75;;
10387;SDS011;5240;51.128;4.566;2022-10-22T10:57:02;11.60;;;2.65;;
10387;SDS011;5240;51.128;4.566;2022-10-22T10:59:38;6.13;;;2.10;;
10387;SDS011;5240;51.128;4.566;2022-10-22T11:02:17;8.45;;;2.25;;
10387;SDS011;5240;51.128;4.566;2022-10-22T11:05:12;9.88;;;2.40;;
10387;SDS011;5240;51.128;4.566;2022-10-22T11:07:58;7.45;;;2.50;;
10387;SDS011;5240;51.128;4.566;2022-10-22T11:10:29;10.95;;;2.85;;
10387;SDS011;5240;51.128;4.566;2022-10-22T11:13:03;9.20;;;2.72;;
10387;SDS011;5240;51.128;4.566;2022-10-22T11:15:36;10.10;;;2.67;;
10387;SDS011;5240;51.128;4.566;2022-10-22T11:18:10;10.75;;;2.70;;
10387;SDS011;5240;51.128;4.566;2022-10-22T11:20:47;9.90;;;2.88;;
10387;SDS011;5240;51.128;4.566;2022-10-22T11:23:22;8.82;;;2.60;;
10387;SDS011;5240;51.128;4.566;2022-10-22T11:25:53;9.25;;;3.13;;
10387;SDS011;5240;51.128;4.566;2022-10-22T11:28:22;7.63;;;3.00;;
10387;SDS011;5240;51.128;4.566;2022-10-22T11:30:55;9.25;;;2.63;;
10387;SDS011;5240;51.128;4.566;2022-10-22T11:33:27;11.52;;;2.67;;
10387;SDS011;5240;51.128;4.566;2022-10-22T11:36:01;12.65;;;2.90;;
10387;SDS011;5240;51.128;4.566;2022-10-22T11:38:31;10.07;;;3.00;;
10387;SDS011;5240;51.128;4.566;2022-10-22T11:41:00;7.88;;;2.80;;
10387;SDS011;5240;51.128;4.566;2022-10-22T11:43:31;7.13;;;2.65;;
10387;SDS011;5240;51.128;4.566;2022-10-22T11:46:02;6.93;;;2.28;;
10387;SDS011;5240;51.128;4.566;2022-10-22T11:48:35;10.02;;;2.80;;
10387;SDS011;5240;51.128;4.566;2022-10-22T11:51:03;9.15;;;2.95;;
10387;SDS011;5240;51.128;4.566;2022-10-22T11:53:58;7.90;;;2.55;;
10387;SDS011;5240;51.128;4.566;2022-10-22T11:56:35;6.50;;;2.22;;
10387;SDS011;5240;51.128;4.566;2022-10-22T11:59:04;11.48;;;2.70;;
10387;SDS011;5240;51.128;4.566;2022-10-22T12:01:58;10.18;;;2.25;;
10387;SDS011;5240;51.128;4.566;2022-10-22T12:04:38;7.95;;;2.40;;
10387;SDS011;5240;51.128;4.566;2022-10-22T12:07:24;8.20;;;2.45;;
10387;SDS011;5240;51.128;4.566;2022-10-22T12:09:59;7.95;;;2.53;;
10387;SDS011;5240;51.128;4.566;2022-10-22T12:12:33;10.20;;;2.63;;
10387;SDS011;5240;51.128;4.566;2022-10-22T12:15:19;9.30;;;2.65;;
10387;SDS011;5240;51.128;4.566;2022-10-22T12:17:49;6.72;;;2.60;;
10387;SDS011;5240;51.128;4.566;2022-10-22T12:20:21;9.55;;;2.97;;
10387;SDS011;5240;51.128;4.566;2022-10-22T12:22:51;8.57;;;2.63;;
10387;SDS011;5240;51.128;4.566;2022-10-22T12:25:22;9.40;;;2.55;;
10387;SDS011;5240;51.128;4.566;2022-10-22T12:27:51;11.65;;;3.08;;
10387;SDS011;5240;51.128;4.566;2022-10-22T12:30:22;6.93;;;3.00;;
10387;SDS011;5240;51.128;4.566;2022-10-22T12:32:50;12.27;;;2.85;;
10387;SDS011;5240;51.128;4.566;2022-10-22T12:35:19;6.68;;;2.22;;
10387;SDS011;5240;51.128;4.566;2022-10-22T12:37:48;9.10;;;2.60;;
10387;SDS011;5240;51.128;4.566;2022-10-22T12:40:17;12.40;;;2.90;;
10387;SDS011;5240;51.128;4.566;2022-10-22T12:42:51;6.18;;;2.33;;
10387;SDS011;5240;51.128;4.566;2022-10-22T12:45:21;9.52;;;2.45;;
10387;SDS011;5240;51.128;4.566;2022-10-22T12:47:51;7.30;;;2.67;;
10387;SDS011;5240;51.128;4.566;2022-10-22T12:50:23;7.90;;;2.35;;
10387;SDS011;5240;51.128;4.566;2022-10-22T12:52:57;8.95;;;2.53;;
10387;SDS011;5240;51.128;4.566;2022-10-22T12:55:24;4.82;;;2.05;;
10387;SDS011;5240;51.128;4.566;2022-10-22T12:57:53;5.03;;;1.90;;
10387;SDS011;5240;51.128;4.566;2022-10-22T13:00:21;7.75;;;2.20;;
10387;SDS011;5240;51.128;4.566;2022-10-22T13:02:50;7.30;;;1.92;;
10387;SDS011;5240;51.128;4.566;2022-10-22T13:05:22;7.28;;;2.25;;
10387;SDS011;5240;51.128;4.566;2022-10-22T13:07:52;7.50;;;2.20;;
10387;SDS011;5240;51.128;4.566;2022-10-22T13:10:23;8.65;;;3.25;;
10387;SDS011;5240;51.128;4.566;2022-10-22T13:12:54;6.82;;;2.50;;
10387;SDS011;5240;51.128;4.566;2022-10-22T13:15:33;9.02;;;2.20;;
10387;SDS011;5240;51.128;4.566;2022-10-22T13:18:12;9.90;;;2.50;;
10387;SDS011;5240;51.128;4.566;2022-10-22T13:20:49;4.75;;;2.28;;
10387;SDS011;5240;51.128;4.566;2022-10-22T13:23:21;11.10;;;2.78;;
10387;SDS011;5240;51.128;4.566;2022-10-22T13:25:56;7.43;;;2.25;;
10387;SDS011;5240;51.128;4.566;2022-10-22T13:28:27;5.20;;;2.17;;
10387;SDS011;5240;51.128;4.566;2022-10-22T13:30:56;7.93;;;2.35;;
10387;SDS011;5240;51.128;4.566;2022-10-22T13:33:25;7.10;;;1.92;;
10387;SDS011;5240;51.128;4.566;2022-10-22T13:35:55;5.38;;;2.00;;
10387;SDS011;5240;51.128;4.566;2022-10-22T13:38:23;6.90;;;2.38;;
10387;SDS011;5240;51.128;4.566;2022-10-22T13:40:52;7.93;;;2.08;;
10387;SDS011;5240;51.128;4.566;2022-10-22T13:43:20;8.38;;;2.30;;
10387;SDS011;5240;51.128;4.566;2022-10-22T13:45:50;7.80;;;2.15;;
10387;SDS011;5240;51.128;4.566;2022-10-22T13:48:19;8.98;;;2.03;;
10387;SDS011;5240;51.128;4.566;2022-10-22T13:50:48;7.68;;;2.08;;
10387;SDS011;5240;51.128;4.566;2022-10-22T13:53:16;4.00;;;1.92;;
10387;SDS011;5240;51.128;4.566;2022-10-22T13:55:46;4.38;;;1.83;;
10387;SDS011;5240;51.128;4.566;2022-10-22T13:58:15;8.15;;;2.47;;
10387;SDS011;5240;51.128;4.566;2022-10-22T14:00:44;7.80;;;2.25;;
10387;SDS011;5240;51.128;4.566;2022-10-22T14:03:15;8.35;;;2.10;;
10387;SDS011;5240;51.128;4.566;2022-10-22T14:05:44;6.32;;;1.90;;
10387;SDS011;5240;51.128;4.566;2022-10-22T14:08:13;8.07;;;2.65;;
10387;SDS011;5240;51.128;4.566;2022-10-22T14:10:42;8.70;;;2.20;;
10387;SDS011;5240;51.128;4.566;2022-10-22T14:13:10;6.45;;;2.10;;
10387;SDS011;5240;51.128;4.566;2022-10-22T14:15:38;9.02;;;2.38;;
10387;SDS011;5240;51.128;4.566;2022-10-22T14:18:06;8.32;;;2.63;;
10387;SDS011;5240;51.128;4.566;2022-10-22T14:20:39;9.07;;;2.75;;
10387;SDS011;5240;51.128;4.566;2022-10-22T14:23:10;9.55;;;2.58;;
10387;SDS011;5240;51.128;4.566;2022-10-22T14:25:40;7.25;;;2.15;;
10387;SDS011;5240;51.128;4.566;2022-10-22T14:28:07;6.35;;;2.53;;
10387;SDS011;5240;51.128;4.566;2022-10-22T14:30:35;5.47;;;2.05;;
10387;SDS011;5240;51.128;4.566;2022-10-22T14:33:05;5.30;;;2.22;;
10387;SDS011;5240;51.128;4.566;2022-10-22T14:35:39;10.20;;;2.55;;
10387;SDS011;5240;51.128;4.566;2022-10-22T14:38:06;7.10;;;2.17;;
10387;SDS011;5240;51.128;4.566;2022-10-22T14:40:34;7.65;;;2.28;;
10387;SDS011;5240;51.128;4.566;2022-10-22T14:43:02;10.13;;;2.40;;
10387;SDS011;5240;51.128;4.566;2022-10-22T14:45:30;5.95;;;1.83;;
10387;SDS011;5240;51.128;4.566;2022-10-22T14:47:57;5.57;;;2.20;;
10387;SDS011;5240;51.128;4.566;2022-10-22T14:50:24;5.80;;;2.20;;
10387;SDS011;5240;51.128;4.566;2022-10-22T14:52:52;5.38;;;2.17;;
10387;SDS011;5240;51.128;4.566;2022-10-22T14:55:21;6.18;;;1.95;;
10387;SDS011;5240;51.128;4.566;2022-10-22T14:57:50;3.60;;;1.70;;
10387;SDS011;5240;51.128;4.566;2022-10-22T15:00:17;4.78;;;1.77;;
10387;SDS011;5240;51.128;4.566;2022-10-22T15:02:45;6.55;;;2.03;;
10387;SDS011;5240;51.128;4.566;2022-10-22T15:05:13;11.38;;;2.38;;
10387;SDS011;5240;51.128;4.566;2022-10-22T15:07:41;5.68;;;2.08;;
10387;SDS011;5240;51.128;4.566;2022-10-22T15:10:10;6.25;;;1.95;;
10387;SDS011;5240;51.128;4.566;2022-10-22T15:12:37;5.40;;;2.00;;
10387;SDS011;5240;51.128;4.566;2022-10-22T15:15:05;7.85;;;2.15;;
10387;SDS011;5240;51.128;4.566;2022-10-22T15:17:32;6.40;;;2.20;;
10387;SDS011;5240;51.128;4.566;2022-10-22T15:19:59;7.22;;;1.98;;